sensor_id;sensor_type;location;lat;lon;timestamp;P1;durP1;ratioP1;P2;durP2;ratioP2
44428;SDS011;30134;47.866;-4.222;2023-04-03T00:00:18;52.15;;;37.08;;
44428;SDS011;30134;47.866;-4.222;2023-04-03T00:02:45;49.95;;;36.65;;
44428;SDS011;30134;47.866;-4.222;2023-04-03T00:05:11;48.30;;;35.08;;
44428;SDS011;30134;47.866;-4.222;2023-04-03T00:07:38;48.70;;;36.17;;
44428;SDS011;30134;47.866;-4.222;2023-04-03T00:10:04;45.42;;;33.88;;
44428;SDS011;30134;47.866;-4.222;2023-04-03T00:12:31;44.03;;;33.45;;
44428;SDS011;30134;47.866;-4.222;2023-04-03T00:14:57;48.13;;;33.15;;
44428;SDS011;30134;47.866;-4.222;2023-04-03T00:17:24;45.00;;;30.77;;
44428;SDS011;30134;47.866;-4.222;2023-04-03T00:19:51;47.15;;;33.15;;
44428;SDS011;30134;47.866;-4.222;2023-04-03T00:22:25;44.70;;;32.05;;
44428;SDS011;30134;47.866;-4.222;2023-04-03T00:25:04;41.22;;;30.40;;
44428;SDS011;30134;47.866;-4.222;2023-04-03T00:27:31;41.13;;;29.52;;
44428;SDS011;30134;47.866;-4.222;2023-04-03T00:29:57;40.38;;;29.02;;
44428;SDS011;30134;47.866;-4.222;2023-04-03T00:32:24;39.53;;;28.25;;
44428;SDS011;30134;47.866;-4.222;2023-04-03T00:34:50;39.60;;;29.23;;
44428;SDS011;30134;47.866;-4.222;2023-04-03T00:37:17;38.08;;;28.08;;
44428;SDS011;30134;47.866;-4.222;2023-04-03T00:39:43;33.92;;;26.42;;
44428;SDS011;30134;47.866;-4.222;2023-04-03T00:42:10;35.22;;;26.52;;
44428;SDS011;30134;47.866;-4.222;2023-04-03T00:47:04;34.42;;;25.63;;
44428;SDS011;30134;47.866;-4.222;2023-04-03T00:49:33;33.35;;;25.45;;
44428;SDS011;30134;47.866;-4.222;2023-04-03T00:52:00;31.42;;;23.80;;
44428;SDS011;30134;47.866;-4.222;2023-04-03T00:54:27;35.67;;;24.30;;
44428;SDS011;30134;47.866;-4.222;2023-04-03T00:56:54;32.65;;;23.45;;
44428;SDS011;30134;47.866;-4.222;2023-04-03T00:59:24;32.78;;;23.30;;
44428;SDS011;30134;47.866;-4.222;2023-04-03T01:01:56;29.95;;;22.48;;
44428;SDS011;30134;47.866;-4.222;2023-04-03T01:04:40;29.95;;;23.00;;
44428;SDS011;30134;47.866;-4.222;2023-04-03T01:07:09;29.58;;;22.02;;
44428;SDS011;30134;47.866;-4.222;2023-04-03T01:09:40;30.77;;;21.65;;
44428;SDS011;30134;47.866;-4.222;2023-04-03T01:15:05;28.20;;;20.38;;
44428;SDS011;30134;47.866;-4.222;2023-04-03T01:17:36;26.40;;;19.88;;
44428;SDS011;30134;47.866;-4.222;2023-04-03T01:25:23;25.63;;;19.08;;
44428;SDS011;30134;47.866;-4.222;2023-04-03T01:27:50;23.60;;;17.60;;
44428;SDS011;30134;47.866;-4.222;2023-04-03T01:30:17;23.50;;;17.55;;
44428;SDS011;30134;47.866;-4.222;2023-04-03T01:32:45;21.48;;;16.58;;
44428;SDS011;30134;47.866;-4.222;2023-04-03T01:35:12;22.27;;;16.50;;
44428;SDS011;30134;47.866;-4.222;2023-04-03T01:37:38;23.20;;;17.38;;
44428;SDS011;30134;47.866;-4.222;2023-04-03T01:40:05;20.63;;;15.43;;
44428;SDS011;30134;47.866;-4.222;2023-04-03T01:42:32;21.88;;;15.75;;
44428;SDS011;30134;47.866;-4.222;2023-04-03T01:44:58;19.15;;;14.43;;
44428;SDS011;30134;47.866;-4.222;2023-04-03T01:47:25;20.15;;;14.85;;
44428;SDS011;30134;47.866;-4.222;2023-04-03T01:49:51;18.45;;;14.75;;
44428;SDS011;30134;47.866;-4.222;2023-04-03T01:52:17;20.10;;;15.02;;
44428;SDS011;30134;47.866;-4.222;2023-04-03T01:54:47;19.52;;;14.27;;
44428;SDS011;30134;47.866;-4.222;2023-04-03T01:57:13;21.02;;;14.15;;
44428;SDS011;30134;47.866;-4.222;2023-04-03T01:59:40;17.67;;;13.93;;
44428;SDS011;30134;47.866;-4.222;2023-04-03T02:02:06;20.42;;;14.70;;
44428;SDS011;30134;47.866;-4.222;2023-04-03T02:04:33;18.83;;;14.23;;
44428;SDS011;30134;47.866;-4.222;2023-04-03T02:06:59;16.92;;;13.57;;
44428;SDS011;30134;47.866;-4.222;2023-04-03T02:09:26;18.10;;;13.13;;
44428;SDS011;30134;47.866;-4.222;2023-04-03T02:11:52;15.85;;;11.88;;
44428;SDS011;30134;47.866;-4.222;2023-04-03T02:14:19;15.57;;;12.32;;
44428;SDS011;30134;47.866;-4.222;2023-04-03T02:16:46;15.45;;;11.70;;
44428;SDS011;30134;47.866;-4.222;2023-04-03T02:19:16;15.23;;;11.55;;
44428;SDS011;30134;47.866;-4.222;2023-04-03T02:21:42;14.48;;;11.65;;
44428;SDS011;30134;47.866;-4.222;2023-04-03T02:24:08;15.25;;;11.50;;
44428;SDS011;30134;47.866;-4.222;2023-04-03T02:26:35;14.82;;;11.45;;
44428;SDS011;30134;47.866;-4.222;2023-04-03T02:29:01;14.98;;;10.93;;
44428;SDS011;30134;47.866;-4.222;2023-04-03T02:31:27;15.00;;;10.68;;
44428;SDS011;30134;47.866;-4.222;2023-04-03T02:33:54;14.82;;;10.75;;
44428;SDS011;30134;47.866;-4.222;2023-04-03T02:36:20;13.55;;;10.57;;
44428;SDS011;30134;47.866;-4.222;2023-04-03T02:38:46;13.52;;;9.82;;
44428;SDS011;30134;47.866;-4.222;2023-04-03T02:41:13;12.60;;;9.75;;
44428;SDS011;30134;47.866;-4.222;2023-04-03T02:43:39;12.07;;;9.40;;
44428;SDS011;30134;47.866;-4.222;2023-04-03T02:46:06;12.45;;;9.32;;
44428;SDS011;30134;47.866;-4.222;2023-04-03T02:48:32;12.52;;;9.32;;
44428;SDS011;30134;47.866;-4.222;2023-04-03T02:50:58;10.95;;;9.25;;
44428;SDS011;30134;47.866;-4.222;2023-04-03T02:53:26;12.15;;;9.02;;
44428;SDS011;30134;47.866;-4.222;2023-04-03T02:55:55;10.48;;;8.70;;
44428;SDS011;30134;47.866;-4.222;2023-04-03T02:58:21;10.75;;;8.85;;
44428;SDS011;30134;47.866;-4.222;2023-04-03T03:00:47;10.55;;;8.15;;
44428;SDS011;30134;47.866;-4.222;2023-04-03T03:03:16;10.27;;;8.02;;
44428;SDS011;30134;47.866;-4.222;2023-04-03T03:05:42;9.95;;;8.05;;
44428;SDS011;30134;47.866;-4.222;2023-04-03T03:08:09;10.57;;;8.05;;
44428;SDS011;30134;47.866;-4.222;2023-04-03T03:10:35;8.80;;;6.97;;
44428;SDS011;30134;47.866;-4.222;2023-04-03T03:13:01;9.55;;;7.38;;
44428;SDS011;30134;47.866;-4.222;2023-04-03T03:15:28;9.32;;;7.03;;
44428;SDS011;30134;47.866;-4.222;2023-04-03T03:17:54;8.73;;;6.97;;
44428;SDS011;30134;47.866;-4.222;2023-04-03T03:20:20;10.38;;;7.78;;
44428;SDS011;30134;47.866;-4.222;2023-04-03T03:22:47;8.20;;;6.68;;
44428;SDS011;30134;47.866;-4.222;2023-04-03T03:25:13;8.90;;;6.68;;
44428;SDS011;30134;47.866;-4.222;2023-04-03T03:27:39;11.35;;;7.18;;
44428;SDS011;30134;47.866;-4.222;2023-04-03T03:30:06;8.27;;;6.57;;
44428;SDS011;30134;47.866;-4.222;2023-04-03T03:32:33;8.50;;;6.65;;
44428;SDS011;30134;47.866;-4.222;2023-04-03T03:34:59;8.98;;;6.40;;
44428;SDS011;30134;47.866;-4.222;2023-04-03T03:37:25;8.80;;;6.47;;
44428;SDS011;30134;47.866;-4.222;2023-04-03T03:39:55;8.35;;;6.25;;
44428;SDS011;30134;47.866;-4.222;2023-04-03T03:42:22;7.55;;;6.03;;
44428;SDS011;30134;47.866;-4.222;2023-04-03T03:44:48;6.95;;;5.65;;
44428;SDS011;30134;47.866;-4.222;2023-04-03T03:47:14;7.72;;;5.78;;
44428;SDS011;30134;47.866;-4.222;2023-04-03T03:49:40;8.45;;;6.03;;
44428;SDS011;30134;47.866;-4.222;2023-04-03T03:52:07;6.25;;;4.97;;
44428;SDS011;30134;47.866;-4.222;2023-04-03T03:54:35;6.78;;;5.30;;
44428;SDS011;30134;47.866;-4.222;2023-04-03T03:57:03;6.60;;;5.20;;
44428;SDS011;30134;47.866;-4.222;2023-04-03T03:59:31;6.32;;;4.97;;
44428;SDS011;30134;47.866;-4.222;2023-04-03T04:01:58;6.70;;;4.85;;
44428;SDS011;30134;47.866;-4.222;2023-04-03T04:04:24;7.03;;;5.07;;
44428;SDS011;30134;47.866;-4.222;2023-04-03T04:06:50;6.53;;;5.07;;
44428;SDS011;30134;47.866;-4.222;2023-04-03T04:09:17;5.47;;;4.80;;
44428;SDS011;30134;47.866;-4.222;2023-04-03T04:11:43;5.28;;;4.43;;
44428;SDS011;30134;47.866;-4.222;2023-04-03T04:14:10;7.03;;;5.28;;
44428;SDS011;30134;47.866;-4.222;2023-04-03T04:16:38;5.97;;;4.63;;
44428;SDS011;30134;47.866;-4.222;2023-04-03T04:19:04;5.22;;;4.40;;
44428;SDS011;30134;47.866;-4.222;2023-04-03T04:21:31;5.60;;;4.65;;
44428;SDS011;30134;47.866;-4.222;2023-04-03T04:24:04;6.05;;;4.38;;
44428;SDS011;30134;47.866;-4.222;2023-04-03T04:26:31;5.75;;;4.80;;
44428;SDS011;30134;47.866;-4.222;2023-04-03T04:28:57;5.25;;;4.15;;
44428;SDS011;30134;47.866;-4.222;2023-04-03T04:31:23;5.35;;;4.28;;
44428;SDS011;30134;47.866;-4.222;2023-04-03T04:33:50;4.32;;;3.92;;
44428;SDS011;30134;47.866;-4.222;2023-04-03T04:36:16;5.35;;;4.13;;
44428;SDS011;30134;47.866;-4.222;2023-04-03T04:38:43;5.05;;;3.97;;
44428;SDS011;30134;47.866;-4.222;2023-04-03T04:41:09;4.22;;;3.63;;
44428;SDS011;30134;47.866;-4.222;2023-04-03T04:43:36;4.55;;;3.40;;
44428;SDS011;30134;47.866;-4.222;2023-04-03T04:46:09;5.28;;;3.83;;
44428;SDS011;30134;47.866;-4.222;2023-04-03T04:48:44;4.90;;;3.88;;
44428;SDS011;30134;47.866;-4.222;2023-04-03T04:51:11;5.03;;;3.83;;
44428;SDS011;30134;47.866;-4.222;2023-04-03T04:53:37;4.53;;;3.40;;
44428;SDS011;30134;47.866;-4.222;2023-04-03T04:56:03;4.07;;;3.58;;
44428;SDS011;30134;47.866;-4.222;2023-04-03T04:58:30;3.88;;;3.35;;
44428;SDS011;30134;47.866;-4.222;2023-04-03T05:01:03;4.25;;;3.35;;
44428;SDS011;30134;47.866;-4.222;2023-04-03T05:03:31;4.07;;;3.45;;
44428;SDS011;30134;47.866;-4.222;2023-04-03T05:05:58;4.78;;;3.20;;
44428;SDS011;30134;47.866;-4.222;2023-04-03T05:08:25;4.43;;;3.13;;
44428;SDS011;30134;47.866;-4.222;2023-04-03T05:10:52;4.28;;;3.50;;
44428;SDS011;30134;47.866;-4.222;2023-04-03T05:13:18;4.15;;;2.70;;
44428;SDS011;30134;47.866;-4.222;2023-04-03T05:15:45;4.10;;;3.10;;
44428;SDS011;30134;47.866;-4.222;2023-04-03T05:18:12;3.95;;;3.13;;
44428;SDS011;30134;47.866;-4.222;2023-04-03T05:20:40;4.00;;;3.15;;
44428;SDS011;30134;47.866;-4.222;2023-04-03T05:23:08;3.92;;;3.08;;
44428;SDS011;30134;47.866;-4.222;2023-04-03T05:25:39;3.03;;;2.53;;
44428;SDS011;30134;47.866;-4.222;2023-04-03T05:28:06;3.65;;;2.70;;
44428;SDS011;30134;47.866;-4.222;2023-04-03T05:30:33;3.45;;;2.78;;
44428;SDS011;30134;47.866;-4.222;2023-04-03T05:32:59;3.15;;;2.63;;
44428;SDS011;30134;47.866;-4.222;2023-04-03T05:35:26;3.50;;;2.40;;
44428;SDS011;30134;47.866;-4.222;2023-04-03T05:37:52;3.13;;;2.65;;
44428;SDS011;30134;47.866;-4.222;2023-04-03T05:40:19;3.38;;;2.67;;
44428;SDS011;30134;47.866;-4.222;2023-04-03T05:42:46;2.90;;;2.50;;
44428;SDS011;30134;47.866;-4.222;2023-04-03T05:45:12;3.90;;;2.88;;
44428;SDS011;30134;47.866;-4.222;2023-04-03T05:47:45;2.80;;;2.42;;
44428;SDS011;30134;47.866;-4.222;2023-04-03T05:50:12;3.28;;;2.42;;
44428;SDS011;30134;47.866;-4.222;2023-04-03T05:52:40;2.60;;;2.40;;
44428;SDS011;30134;47.866;-4.222;2023-04-03T05:55:09;3.20;;;2.38;;
44428;SDS011;30134;47.866;-4.222;2023-04-03T05:57:36;2.83;;;2.40;;
44428;SDS011;30134;47.866;-4.222;2023-04-03T06:00:04;4.05;;;2.55;;
44428;SDS011;30134;47.866;-4.222;2023-04-03T06:02:32;4.78;;;2.70;;
44428;SDS011;30134;47.866;-4.222;2023-04-03T06:04:58;3.15;;;2.60;;
44428;SDS011;30134;47.866;-4.222;2023-04-03T06:07:26;2.88;;;2.15;;
44428;SDS011;30134;47.866;-4.222;2023-04-03T06:09:53;3.17;;;2.55;;
44428;SDS011;30134;47.866;-4.222;2023-04-03T06:12:21;4.88;;;2.40;;
44428;SDS011;30134;47.866;-4.222;2023-04-03T06:14:47;3.00;;;2.20;;
44428;SDS011;30134;47.866;-4.222;2023-04-03T06:17:15;5.95;;;2.40;;
44428;SDS011;30134;47.866;-4.222;2023-04-03T06:19:42;2.80;;;2.22;;
44428;SDS011;30134;47.866;-4.222;2023-04-03T06:22:13;3.58;;;2.33;;
44428;SDS011;30134;47.866;-4.222;2023-04-03T06:24:39;2.95;;;2.20;;
44428;SDS011;30134;47.866;-4.222;2023-04-03T06:27:05;2.63;;;2.17;;
44428;SDS011;30134;47.866;-4.222;2023-04-03T06:29:31;3.47;;;2.10;;
44428;SDS011;30134;47.866;-4.222;2023-04-03T06:31:57;2.85;;;2.30;;
44428;SDS011;30134;47.866;-4.222;2023-04-03T06:34:23;3.10;;;2.15;;
44428;SDS011;30134;47.866;-4.222;2023-04-03T06:36:49;3.25;;;1.88;;
44428;SDS011;30134;47.866;-4.222;2023-04-03T06:39:16;2.50;;;1.88;;
44428;SDS011;30134;47.866;-4.222;2023-04-03T06:41:47;2.45;;;1.83;;
44428;SDS011;30134;47.866;-4.222;2023-04-03T06:44:15;3.45;;;1.90;;
44428;SDS011;30134;47.866;-4.222;2023-04-03T06:46:41;2.83;;;1.80;;
44428;SDS011;30134;47.866;-4.222;2023-04-03T06:49:10;3.28;;;1.95;;
44428;SDS011;30134;47.866;-4.222;2023-04-03T06:51:36;4.57;;;1.90;;
44428;SDS011;30134;47.866;-4.222;2023-04-03T06:54:03;3.17;;;1.60;;
44428;SDS011;30134;47.866;-4.222;2023-04-03T06:56:31;2.95;;;1.75;;
44428;SDS011;30134;47.866;-4.222;2023-04-03T06:58:57;3.75;;;1.83;;
44428;SDS011;30134;47.866;-4.222;2023-04-03T07:01:24;2.75;;;1.55;;
44428;SDS011;30134;47.866;-4.222;2023-04-03T07:03:52;2.20;;;1.60;;
44428;SDS011;30134;47.866;-4.222;2023-04-03T07:06:19;2.97;;;1.77;;
44428;SDS011;30134;47.866;-4.222;2023-04-03T07:08:46;1.85;;;1.50;;
44428;SDS011;30134;47.866;-4.222;2023-04-03T07:11:14;4.15;;;1.83;;
44428;SDS011;30134;47.866;-4.222;2023-04-03T07:13:40;4.22;;;1.70;;
44428;SDS011;30134;47.866;-4.222;2023-04-03T07:16:07;2.00;;;1.63;;
44428;SDS011;30134;47.866;-4.222;2023-04-03T07:18:34;2.45;;;1.55;;
44428;SDS011;30134;47.866;-4.222;2023-04-03T07:21:01;2.00;;;1.50;;
44428;SDS011;30134;47.866;-4.222;2023-04-03T07:23:29;2.92;;;1.60;;
44428;SDS011;30134;47.866;-4.222;2023-04-03T07:25:57;2.08;;;1.80;;
44428;SDS011;30134;47.866;-4.222;2023-04-03T07:28:23;2.70;;;1.60;;
44428;SDS011;30134;47.866;-4.222;2023-04-03T07:30:54;4.18;;;1.60;;
44428;SDS011;30134;47.866;-4.222;2023-04-03T07:33:36;3.53;;;1.73;;
44428;SDS011;30134;47.866;-4.222;2023-04-03T07:36:03;4.00;;;1.63;;
44428;SDS011;30134;47.866;-4.222;2023-04-03T07:38:32;4.50;;;1.83;;
44428;SDS011;30134;47.866;-4.222;2023-04-03T07:41:00;2.55;;;1.67;;
44428;SDS011;30134;47.866;-4.222;2023-04-03T07:43:26;4.68;;;1.92;;
44428;SDS011;30134;47.866;-4.222;2023-04-03T07:45:55;2.72;;;1.90;;
44428;SDS011;30134;47.866;-4.222;2023-04-03T07:48:23;3.55;;;1.70;;
44428;SDS011;30134;47.866;-4.222;2023-04-03T07:50:50;3.70;;;1.75;;
44428;SDS011;30134;47.866;-4.222;2023-04-03T07:53:17;6.20;;;1.80;;
44428;SDS011;30134;47.866;-4.222;2023-04-03T07:55:45;5.93;;;2.17;;
44428;SDS011;30134;47.866;-4.222;2023-04-03T07:58:14;3.95;;;1.98;;
44428;SDS011;30134;47.866;-4.222;2023-04-03T08:00:42;3.97;;;1.80;;
44428;SDS011;30134;47.866;-4.222;2023-04-03T08:03:10;8.38;;;2.10;;
44428;SDS011;30134;47.866;-4.222;2023-04-03T08:05:40;6.07;;;1.92;;
44428;SDS011;30134;47.866;-4.222;2023-04-03T08:08:08;4.82;;;2.03;;
44428;SDS011;30134;47.866;-4.222;2023-04-03T08:10:37;6.22;;;2.17;;
44428;SDS011;30134;47.866;-4.222;2023-04-03T08:13:03;5.68;;;1.92;;
44428;SDS011;30134;47.866;-4.222;2023-04-03T08:15:30;6.47;;;2.00;;
44428;SDS011;30134;47.866;-4.222;2023-04-03T08:18:04;7.97;;;2.45;;
44428;SDS011;30134;47.866;-4.222;2023-04-03T08:20:30;6.68;;;2.63;;
44428;SDS011;30134;47.866;-4.222;2023-04-03T08:22:56;16.20;;;2.88;;
44428;SDS011;30134;47.866;-4.222;2023-04-03T08:25:22;9.07;;;2.83;;
44428;SDS011;30134;47.866;-4.222;2023-04-03T08:27:49;8.82;;;3.13;;
44428;SDS011;30134;47.866;-4.222;2023-04-03T08:30:15;12.50;;;2.85;;
44428;SDS011;30134;47.866;-4.222;2023-04-03T08:32:41;8.98;;;2.90;;
44428;SDS011;30134;47.866;-4.222;2023-04-03T08:35:09;6.85;;;3.28;;
44428;SDS011;30134;47.866;-4.222;2023-04-03T08:37:36;9.05;;;3.10;;
44428;SDS011;30134;47.866;-4.222;2023-04-03T08:40:04;9.73;;;3.20;;
44428;SDS011;30134;47.866;-4.222;2023-04-03T08:51:14;7.32;;;2.95;;
44428;SDS011;30134;47.866;-4.222;2023-04-03T08:53:58;10.50;;;3.30;;
44428;SDS011;30134;47.866;-4.222;2023-04-03T08:56:33;6.68;;;3.10;;
44428;SDS011;30134;47.866;-4.222;2023-04-03T08:59:01;7.47;;;3.00;;
44428;SDS011;30134;47.866;-4.222;2023-04-03T09:01:36;7.68;;;3.30;;
44428;SDS011;30134;47.866;-4.222;2023-04-03T09:04:11;5.93;;;3.30;;
44428;SDS011;30134;47.866;-4.222;2023-04-03T09:06:41;8.68;;;3.53;;
44428;SDS011;30134;47.866;-4.222;2023-04-03T09:09:33;5.35;;;3.10;;
44428;SDS011;30134;47.866;-4.222;2023-04-03T09:12:24;8.15;;;3.60;;
44428;SDS011;30134;47.866;-4.222;2023-04-03T09:17:59;8.23;;;3.97;;
44428;SDS011;30134;47.866;-4.222;2023-04-03T09:21:02;7.95;;;3.70;;
44428;SDS011;30134;47.866;-4.222;2023-04-03T09:24:07;9.48;;;3.67;;
44428;SDS011;30134;47.866;-4.222;2023-04-03T09:26:44;6.85;;;3.15;;
44428;SDS011;30134;47.866;-4.222;2023-04-03T09:29:24;7.28;;;3.45;;
44428;SDS011;30134;47.866;-4.222;2023-04-03T09:31:56;11.15;;;3.78;;
44428;SDS011;30134;47.866;-4.222;2023-04-03T09:34:37;9.82;;;3.22;;
44428;SDS011;30134;47.866;-4.222;2023-04-03T09:37:06;9.13;;;3.50;;
44428;SDS011;30134;47.866;-4.222;2023-04-03T09:39:54;9.68;;;4.15;;
44428;SDS011;30134;47.866;-4.222;2023-04-03T09:42:24;9.07;;;3.42;;
44428;SDS011;30134;47.866;-4.222;2023-04-03T09:44:57;10.07;;;3.63;;
44428;SDS011;30134;47.866;-4.222;2023-04-03T09:52:38;8.50;;;3.60;;
44428;SDS011;30134;47.866;-4.222;2023-04-03T09:55:16;9.83;;;3.63;;
44428;SDS011;30134;47.866;-4.222;2023-04-03T09:57:44;10.02;;;3.95;;
44428;SDS011;30134;47.866;-4.222;2023-04-03T10:03:00;7.57;;;3.42;;
44428;SDS011;30134;47.866;-4.222;2023-04-03T10:05:32;7.97;;;3.80;;
44428;SDS011;30134;47.866;-4.222;2023-04-03T10:08:29;7.55;;;3.40;;
44428;SDS011;30134;47.866;-4.222;2023-04-03T10:11:08;6.40;;;3.42;;
44428;SDS011;30134;47.866;-4.222;2023-04-03T10:16:18;7.97;;;3.05;;
44428;SDS011;30134;47.866;-4.222;2023-04-03T10:19:29;5.75;;;2.67;;
44428;SDS011;30134;47.866;-4.222;2023-04-03T10:27:59;7.22;;;3.38;;
44428;SDS011;30134;47.866;-4.222;2023-04-03T10:30:31;8.52;;;3.33;;
44428;SDS011;30134;47.866;-4.222;2023-04-03T10:42:25;5.50;;;2.85;;
44428;SDS011;30134;47.866;-4.222;2023-04-03T10:48:04;6.80;;;3.10;;
44428;SDS011;30134;47.866;-4.222;2023-04-03T10:50:47;9.68;;;2.90;;
44428;SDS011;30134;47.866;-4.222;2023-04-03T10:54:33;7.35;;;2.78;;
44428;SDS011;30134;47.866;-4.222;2023-04-03T10:56:31;7.75;;;3.17;;
44428;SDS011;30134;47.866;-4.222;2023-04-03T11:02:40;7.85;;;2.95;;
44428;SDS011;30134;47.866;-4.222;2023-04-03T11:11:22;7.15;;;2.97;;
44428;SDS011;30134;47.866;-4.222;2023-04-03T11:14:14;5.20;;;2.53;;
44428;SDS011;30134;47.866;-4.222;2023-04-03T11:22:30;6.97;;;3.00;;
44428;SDS011;30134;47.866;-4.222;2023-04-03T11:30:21;6.10;;;3.00;;
44428;SDS011;30134;47.866;-4.222;2023-04-03T11:36:10;6.60;;;2.63;;
44428;SDS011;30134;47.866;-4.222;2023-04-03T11:38:49;6.15;;;2.30;;
44428;SDS011;30134;47.866;-4.222;2023-04-03T11:41:30;9.82;;;2.60;;
44428;SDS011;30134;47.866;-4.222;2023-04-03T11:44:01;6.90;;;2.40;;
44428;SDS011;30134;47.866;-4.222;2023-04-03T12:14:17;4.90;;;2.40;;
44428;SDS011;30134;47.866;-4.222;2023-04-03T12:16:45;6.03;;;2.38;;
44428;SDS011;30134;47.866;-4.222;2023-04-03T12:22:14;7.85;;;2.53;;
44428;SDS011;30134;47.866;-4.222;2023-04-03T12:24:46;5.05;;;2.45;;
44428;SDS011;30134;47.866;-4.222;2023-04-03T12:30:11;4.95;;;2.40;;
44428;SDS011;30134;47.866;-4.222;2023-04-03T12:32:56;4.05;;;2.15;;
44428;SDS011;30134;47.866;-4.222;2023-04-03T12:45:17;6.20;;;2.40;;
44428;SDS011;30134;47.866;-4.222;2023-04-03T12:47:53;6.75;;;2.50;;
44428;SDS011;30134;47.866;-4.222;2023-04-03T12:50:28;5.25;;;2.40;;
44428;SDS011;30134;47.866;-4.222;2023-04-03T12:53:06;4.13;;;2.10;;
44428;SDS011;30134;47.866;-4.222;2023-04-03T12:55:56;5.38;;;2.15;;
44428;SDS011;30134;47.866;-4.222;2023-04-03T12:58:42;5.00;;;2.17;;
44428;SDS011;30134;47.866;-4.222;2023-04-03T13:03:44;4.80;;;2.15;;
44428;SDS011;30134;47.866;-4.222;2023-04-03T13:06:14;4.32;;;1.92;;
44428;SDS011;30134;47.866;-4.222;2023-04-03T13:08:53;7.53;;;2.35;;
44428;SDS011;30134;47.866;-4.222;2023-04-03T13:11:24;4.20;;;1.90;;
44428;SDS011;30134;47.866;-4.222;2023-04-03T13:14:25;4.70;;;1.98;;
44428;SDS011;30134;47.866;-4.222;2023-04-03T13:17:12;5.15;;;1.90;;
44428;SDS011;30134;47.866;-4.222;2023-04-03T13:19:41;4.93;;;2.03;;
44428;SDS011;30134;47.866;-4.222;2023-04-03T13:22:33;3.38;;;1.67;;
44428;SDS011;30134;47.866;-4.222;2023-04-03T13:25:29;6.18;;;2.03;;
44428;SDS011;30134;47.866;-4.222;2023-04-03T13:27:59;6.22;;;2.10;;
44428;SDS011;30134;47.866;-4.222;2023-04-03T13:33:02;4.28;;;2.22;;
44428;SDS011;30134;47.866;-4.222;2023-04-03T13:35:33;5.28;;;1.90;;
44428;SDS011;30134;47.866;-4.222;2023-04-03T13:40:51;3.72;;;1.90;;
44428;SDS011;30134;47.866;-4.222;2023-04-03T13:43:24;4.18;;;1.90;;
44428;SDS011;30134;47.866;-4.222;2023-04-03T13:45:56;5.50;;;1.73;;
44428;SDS011;30134;47.866;-4.222;2023-04-03T13:48:49;5.90;;;2.33;;
44428;SDS011;30134;47.866;-4.222;2023-04-03T13:51:20;6.10;;;1.92;;
44428;SDS011;30134;47.866;-4.222;2023-04-03T13:54:01;4.05;;;1.73;;
44428;SDS011;30134;47.866;-4.222;2023-04-03T13:56:55;5.15;;;2.03;;
44428;SDS011;30134;47.866;-4.222;2023-04-03T13:59:24;10.27;;;2.10;;
44428;SDS011;30134;47.866;-4.222;2023-04-03T14:07:15;5.07;;;1.77;;
44428;SDS011;30134;47.866;-4.222;2023-04-03T14:09:45;6.85;;;2.00;;
44428;SDS011;30134;47.866;-4.222;2023-04-03T14:12:14;7.75;;;2.17;;
44428;SDS011;30134;47.866;-4.222;2023-04-03T14:14:51;3.58;;;1.50;;
44428;SDS011;30134;47.866;-4.222;2023-04-03T14:17:22;8.40;;;2.40;;
44428;SDS011;30134;47.866;-4.222;2023-04-03T14:19:51;7.30;;;2.28;;
44428;SDS011;30134;47.866;-4.222;2023-04-03T14:22:24;5.82;;;2.17;;
44428;SDS011;30134;47.866;-4.222;2023-04-03T14:24:53;7.47;;;1.77;;
44428;SDS011;30134;47.866;-4.222;2023-04-03T14:27:22;4.80;;;1.85;;
44428;SDS011;30134;47.866;-4.222;2023-04-03T14:29:55;4.53;;;1.80;;
44428;SDS011;30134;47.866;-4.222;2023-04-03T14:32:24;7.10;;;2.15;;
44428;SDS011;30134;47.866;-4.222;2023-04-03T14:34:52;4.53;;;1.95;;
44428;SDS011;30134;47.866;-4.222;2023-04-03T14:37:22;3.92;;;1.75;;
44428;SDS011;30134;47.866;-4.222;2023-04-03T14:39:52;3.03;;;1.50;;
44428;SDS011;30134;47.866;-4.222;2023-04-03T14:42:27;2.72;;;1.90;;
44428;SDS011;30134;47.866;-4.222;2023-04-03T14:44:58;3.70;;;1.95;;
44428;SDS011;30134;47.866;-4.222;2023-04-03T14:47:26;4.65;;;2.40;;
44428;SDS011;30134;47.866;-4.222;2023-04-03T14:49:54;3.10;;;1.80;;
44428;SDS011;30134;47.866;-4.222;2023-04-03T14:52:26;3.05;;;1.90;;
44428;SDS011;30134;47.866;-4.222;2023-04-03T14:54:55;3.95;;;2.22;;
44428;SDS011;30134;47.866;-4.222;2023-04-03T14:57:23;3.72;;;2.30;;
44428;SDS011;30134;47.866;-4.222;2023-04-03T14:59:52;4.72;;;1.88;;
44428;SDS011;30134;47.866;-4.222;2023-04-03T15:05:02;5.07;;;2.33;;
44428;SDS011;30134;47.866;-4.222;2023-04-03T15:07:32;6.50;;;2.40;;
44428;SDS011;30134;47.866;-4.222;2023-04-03T15:10:15;12.00;;;2.33;;
44428;SDS011;30134;47.866;-4.222;2023-04-03T15:12:48;6.30;;;2.53;;
44428;SDS011;30134;47.866;-4.222;2023-04-03T15:15:15;5.45;;;2.15;;
44428;SDS011;30134;47.866;-4.222;2023-04-03T15:17:44;9.20;;;2.50;;
44428;SDS011;30134;47.866;-4.222;2023-04-03T15:20:17;5.72;;;2.13;;
44428;SDS011;30134;47.866;-4.222;2023-04-03T15:22:46;7.95;;;2.30;;
44428;SDS011;30134;47.866;-4.222;2023-04-03T15:25:12;6.47;;;2.10;;
44428;SDS011;30134;47.866;-4.222;2023-04-03T15:27:38;4.32;;;1.90;;
44428;SDS011;30134;47.866;-4.222;2023-04-03T15:30:06;7.40;;;2.10;;
44428;SDS011;30134;47.866;-4.222;2023-04-03T15:32:38;4.22;;;1.75;;
44428;SDS011;30134;47.866;-4.222;2023-04-03T15:35:05;6.43;;;1.95;;
44428;SDS011;30134;47.866;-4.222;2023-04-03T15:37:35;4.45;;;1.88;;
44428;SDS011;30134;47.866;-4.222;2023-04-03T15:40:01;6.65;;;1.73;;
44428;SDS011;30134;47.866;-4.222;2023-04-03T15:42:28;5.25;;;2.05;;
44428;SDS011;30134;47.866;-4.222;2023-04-03T15:44:54;8.73;;;2.13;;
44428;SDS011;30134;47.866;-4.222;2023-04-03T15:47:20;6.70;;;2.15;;
44428;SDS011;30134;47.866;-4.222;2023-04-03T15:49:46;9.57;;;2.33;;
44428;SDS011;30134;47.866;-4.222;2023-04-03T15:52:13;10.48;;;2.25;;
44428;SDS011;30134;47.866;-4.222;2023-04-03T15:54:39;13.55;;;5.90;;
44428;SDS011;30134;47.866;-4.222;2023-04-03T15:57:05;22.02;;;11.45;;
44428;SDS011;30134;47.866;-4.222;2023-04-03T15:59:31;18.02;;;9.85;;
44428;SDS011;30134;47.866;-4.222;2023-04-03T16:01:57;17.90;;;9.68;;
44428;SDS011;30134;47.866;-4.222;2023-04-03T16:04:26;14.60;;;8.60;;
44428;SDS011;30134;47.866;-4.222;2023-04-03T16:06:52;21.30;;;8.55;;
44428;SDS011;30134;47.866;-4.222;2023-04-03T16:09:19;15.18;;;7.88;;
44428;SDS011;30134;47.866;-4.222;2023-04-03T16:11:45;12.95;;;7.13;;
44428;SDS011;30134;47.866;-4.222;2023-04-03T16:14:11;14.13;;;7.00;;
44428;SDS011;30134;47.866;-4.222;2023-04-03T16:16:37;13.43;;;6.95;;
44428;SDS011;30134;47.866;-4.222;2023-04-03T16:19:04;10.02;;;5.95;;
44428;SDS011;30134;47.866;-4.222;2023-04-03T16:21:31;9.82;;;5.95;;
44428;SDS011;30134;47.866;-4.222;2023-04-03T16:23:58;9.27;;;5.25;;
44428;SDS011;30134;47.866;-4.222;2023-04-03T16:26:25;9.55;;;5.82;;
44428;SDS011;30134;47.866;-4.222;2023-04-03T16:28:58;9.23;;;5.90;;
44428;SDS011;30134;47.866;-4.222;2023-04-03T16:31:24;8.73;;;5.78;;
44428;SDS011;30134;47.866;-4.222;2023-04-03T16:33:51;9.13;;;5.60;;
44428;SDS011;30134;47.866;-4.222;2023-04-03T16:36:18;7.57;;;5.05;;
44428;SDS011;30134;47.866;-4.222;2023-04-03T16:38:44;7.25;;;4.72;;
44428;SDS011;30134;47.866;-4.222;2023-04-03T16:41:10;8.30;;;4.75;;
44428;SDS011;30134;47.866;-4.222;2023-04-03T16:43:36;7.85;;;5.32;;
44428;SDS011;30134;47.866;-4.222;2023-04-03T16:46:02;7.03;;;4.30;;
44428;SDS011;30134;47.866;-4.222;2023-04-03T16:48:29;7.32;;;4.28;;
44428;SDS011;30134;47.866;-4.222;2023-04-03T16:50:56;6.47;;;4.40;;
44428;SDS011;30134;47.866;-4.222;2023-04-03T16:53:23;7.28;;;3.95;;
44428;SDS011;30134;47.866;-4.222;2023-04-03T16:55:50;6.22;;;4.05;;
44428;SDS011;30134;47.866;-4.222;2023-04-03T16:58:19;6.38;;;4.05;;